sensor_id;sensor_type;location;lat;lon;timestamp;P1;durP1;ratioP1;P2;durP2;ratioP2
59239;SDS011;45010;53.640;10.578;2022-08-01T00:00:49;2.20;;;2.00;;
59239;SDS011;45010;53.640;10.578;2022-08-01T00:03:49;3.22;;;1.85;;
59239;SDS011;45010;53.640;10.578;2022-08-01T00:06:49;2.78;;;1.88;;
59239;SDS011;45010;53.640;10.578;2022-08-01T00:09:50;2.22;;;2.08;;
59239;SDS011;45010;53.640;10.578;2022-08-01T00:12:50;1.90;;;1.80;;
59239;SDS011;45010;53.640;10.578;2022-08-01T00:15:50;3.85;;;2.08;;
59239;SDS011;45010;53.640;10.578;2022-08-01T00:18:51;2.75;;;2.33;;
59239;SDS011;45010;53.640;10.578;2022-08-01T00:21:51;4.32;;;2.05;;
59239;SDS011;45010;53.640;10.578;2022-08-01T00:24:52;2.20;;;2.00;;
59239;SDS011;45010;53.640;10.578;2022-08-01T00:27:52;2.00;;;1.90;;
59239;SDS011;45010;53.640;10.578;2022-08-01T00:30:54;2.20;;;2.00;;
59239;SDS011;45010;53.640;10.578;2022-08-01T00:33:54;2.17;;;1.98;;
59239;SDS011;45010;53.640;10.578;2022-08-01T00:36:54;2.35;;;2.10;;
59239;SDS011;45010;53.640;10.578;2022-08-01T00:39:55;2.40;;;2.20;;
59239;SDS011;45010;53.640;10.578;2022-08-01T00:42:55;2.45;;;2.00;;
59239;SDS011;45010;53.640;10.578;2022-08-01T00:45:55;2.30;;;2.10;;
59239;SDS011;45010;53.640;10.578;2022-08-01T00:48:56;3.22;;;2.20;;
59239;SDS011;45010;53.640;10.578;2022-08-01T00:51:57;2.28;;;1.85;;
59239;SDS011;45010;53.640;10.578;2022-08-01T00:54:58;2.50;;;2.00;;
59239;SDS011;45010;53.640;10.578;2022-08-01T00:57:58;2.40;;;2.20;;
59239;SDS011;45010;53.640;10.578;2022-08-01T01:00:59;2.40;;;2.00;;
59239;SDS011;45010;53.640;10.578;2022-08-01T01:04:00;2.42;;;1.88;;
59239;SDS011;45010;53.640;10.578;2022-08-01T01:07:13;2.20;;;2.00;;
59239;SDS011;45010;53.640;10.578;2022-08-01T01:13:43;2.10;;;1.90;;
59239;SDS011;45010;53.640;10.578;2022-08-01T01:16:45;5.03;;;2.55;;
59239;SDS011;45010;53.640;10.578;2022-08-01T01:19:50;1.98;;;1.80;;
59239;SDS011;45010;53.640;10.578;2022-08-01T01:29:48;2.30;;;1.92;;
59239;SDS011;45010;53.640;10.578;2022-08-01T01:32:51;2.33;;;2.10;;
59239;SDS011;45010;53.640;10.578;2022-08-01T01:35:56;2.20;;;1.98;;
59239;SDS011;45010;53.640;10.578;2022-08-01T01:38:59;1.73;;;1.63;;
59239;SDS011;45010;53.640;10.578;2022-08-01T01:42:00;1.83;;;1.73;;
59239;SDS011;45010;53.640;10.578;2022-08-01T01:45:02;2.08;;;1.88;;
59239;SDS011;45010;53.640;10.578;2022-08-01T01:48:07;2.00;;;1.77;;
59239;SDS011;45010;53.640;10.578;2022-08-01T01:51:09;2.55;;;1.70;;
59239;SDS011;45010;53.640;10.578;2022-08-01T01:54:10;2.65;;;1.60;;
59239;SDS011;45010;53.640;10.578;2022-08-01T01:57:11;2.25;;;1.90;;
59239;SDS011;45010;53.640;10.578;2022-08-01T02:00:13;1.98;;;1.75;;
59239;SDS011;45010;53.640;10.578;2022-08-01T02:03:15;2.03;;;1.63;;
59239;SDS011;45010;53.640;10.578;2022-08-01T02:06:17;1.98;;;1.80;;
59239;SDS011;45010;53.640;10.578;2022-08-01T02:09:19;2.97;;;2.03;;
59239;SDS011;45010;53.640;10.578;2022-08-01T02:12:21;1.90;;;1.67;;
59239;SDS011;45010;53.640;10.578;2022-08-01T02:15:22;2.90;;;1.70;;
59239;SDS011;45010;53.640;10.578;2022-08-01T02:18:24;2.05;;;1.88;;
59239;SDS011;45010;53.640;10.578;2022-08-01T02:21:30;2.90;;;1.80;;
59239;SDS011;45010;53.640;10.578;2022-08-01T02:24:36;1.80;;;1.70;;
59239;SDS011;45010;53.640;10.578;2022-08-01T02:30:56;1.77;;;1.67;;
59239;SDS011;45010;53.640;10.578;2022-08-01T02:34:04;2.58;;;1.55;;
59239;SDS011;45010;53.640;10.578;2022-08-01T02:37:09;2.08;;;1.88;;
59239;SDS011;45010;53.640;10.578;2022-08-01T02:40:09;1.30;;;1.20;;
59239;SDS011;45010;53.640;10.578;2022-08-01T02:43:11;1.92;;;1.70;;
59239;SDS011;45010;53.640;10.578;2022-08-01T02:46:38;1.77;;;1.63;;
59239;SDS011;45010;53.640;10.578;2022-08-01T02:49:44;1.60;;;1.50;;
59239;SDS011;45010;53.640;10.578;2022-08-01T02:52:47;2.10;;;1.90;;
59239;SDS011;45010;53.640;10.578;2022-08-01T02:55:51;1.60;;;1.50;;
59239;SDS011;45010;53.640;10.578;2022-08-01T02:58:52;2.88;;;1.50;;
59239;SDS011;45010;53.640;10.578;2022-08-01T03:01:53;2.55;;;1.52;;
59239;SDS011;45010;53.640;10.578;2022-08-01T03:04:55;1.70;;;1.60;;
59239;SDS011;45010;53.640;10.578;2022-08-01T03:07:57;1.63;;;1.52;;
59239;SDS011;45010;53.640;10.578;2022-08-01T03:10:59;1.55;;;1.45;;
59239;SDS011;45010;53.640;10.578;2022-08-01T03:14:01;1.77;;;1.65;;
59239;SDS011;45010;53.640;10.578;2022-08-01T03:17:05;1.98;;;1.40;;
59239;SDS011;45010;53.640;10.578;2022-08-01T03:20:08;1.60;;;1.50;;
59239;SDS011;45010;53.640;10.578;2022-08-01T03:23:12;1.30;;;1.20;;
59239;SDS011;45010;53.640;10.578;2022-08-01T03:26:15;1.73;;;1.58;;
59239;SDS011;45010;53.640;10.578;2022-08-01T03:29:18;2.22;;;1.90;;
59239;SDS011;45010;53.640;10.578;2022-08-01T03:32:22;1.50;;;1.40;;
59239;SDS011;45010;53.640;10.578;2022-08-01T03:35:30;2.08;;;1.45;;
59239;SDS011;45010;53.640;10.578;2022-08-01T03:38:37;1.35;;;1.25;;
59239;SDS011;45010;53.640;10.578;2022-08-01T03:41:39;3.38;;;1.98;;
59239;SDS011;45010;53.640;10.578;2022-08-01T03:44:45;1.67;;;1.58;;
59239;SDS011;45010;53.640;10.578;2022-08-01T03:47:52;1.70;;;1.60;;
59239;SDS011;45010;53.640;10.578;2022-08-01T03:50:58;1.65;;;1.40;;
59239;SDS011;45010;53.640;10.578;2022-08-01T03:53:59;1.85;;;1.48;;
59239;SDS011;45010;53.640;10.578;2022-08-01T03:57:01;1.73;;;1.63;;
59239;SDS011;45010;53.640;10.578;2022-08-01T04:00:03;1.95;;;1.60;;
59239;SDS011;45010;53.640;10.578;2022-08-01T04:03:07;1.70;;;1.60;;
59239;SDS011;45010;53.640;10.578;2022-08-01T04:06:08;1.83;;;1.73;;
59239;SDS011;45010;53.640;10.578;2022-08-01T04:09:10;1.98;;;1.45;;
59239;SDS011;45010;53.640;10.578;2022-08-01T04:12:11;2.58;;;1.55;;
59239;SDS011;45010;53.640;10.578;2022-08-01T04:15:12;2.65;;;1.50;;
59239;SDS011;45010;53.640;10.578;2022-08-01T04:18:13;1.75;;;1.65;;
59239;SDS011;45010;53.640;10.578;2022-08-01T04:21:14;2.30;;;1.80;;
59239;SDS011;45010;53.640;10.578;2022-08-01T04:24:18;2.85;;;2.00;;
59239;SDS011;45010;53.640;10.578;2022-08-01T04:27:27;4.63;;;2.10;;
59239;SDS011;45010;53.640;10.578;2022-08-01T04:30:31;1.73;;;1.63;;
59239;SDS011;45010;53.640;10.578;2022-08-01T04:33:34;1.50;;;1.40;;
59239;SDS011;45010;53.640;10.578;2022-08-01T04:36:36;5.32;;;1.75;;
59239;SDS011;45010;53.640;10.578;2022-08-01T04:39:38;2.17;;;1.20;;
59239;SDS011;45010;53.640;10.578;2022-08-01T04:42:41;1.65;;;1.50;;
59239;SDS011;45010;53.640;10.578;2022-08-01T04:45:42;2.65;;;1.60;;
59239;SDS011;45010;53.640;10.578;2022-08-01T04:48:43;2.35;;;1.73;;
59239;SDS011;45010;53.640;10.578;2022-08-01T04:51:51;6.03;;;1.40;;
59239;SDS011;45010;53.640;10.578;2022-08-01T04:54:57;2.55;;;1.20;;
59239;SDS011;45010;53.640;10.578;2022-08-01T04:57:57;3.20;;;1.38;;
59239;SDS011;45010;53.640;10.578;2022-08-01T05:00:58;1.60;;;1.50;;
59239;SDS011;45010;53.640;10.578;2022-08-01T05:03:58;2.53;;;1.30;;
59239;SDS011;45010;53.640;10.578;2022-08-01T05:06:58;2.15;;;1.10;;
59239;SDS011;45010;53.640;10.578;2022-08-01T05:09:59;1.77;;;1.40;;
59239;SDS011;45010;53.640;10.578;2022-08-01T05:13:01;3.67;;;1.25;;
59239;SDS011;45010;53.640;10.578;2022-08-01T05:16:02;2.05;;;1.40;;
59239;SDS011;45010;53.640;10.578;2022-08-01T05:19:03;2.30;;;1.20;;
59239;SDS011;45010;53.640;10.578;2022-08-01T05:22:04;3.53;;;1.10;;
59239;SDS011;45010;53.640;10.578;2022-08-01T05:25:06;2.28;;;1.42;;
59239;SDS011;45010;53.640;10.578;2022-08-01T05:28:06;1.70;;;1.35;;
59239;SDS011;45010;53.640;10.578;2022-08-01T05:31:07;1.75;;;1.02;;
59239;SDS011;45010;53.640;10.578;2022-08-01T05:34:07;2.03;;;1.35;;
59239;SDS011;45010;53.640;10.578;2022-08-01T05:37:07;2.90;;;1.25;;
59239;SDS011;45010;53.640;10.578;2022-08-01T05:40:08;4.53;;;1.40;;
59239;SDS011;45010;53.640;10.578;2022-08-01T05:43:09;2.35;;;1.40;;
59239;SDS011;45010;53.640;10.578;2022-08-01T05:46:09;1.48;;;1.33;;
59239;SDS011;45010;53.640;10.578;2022-08-01T05:49:09;5.45;;;1.50;;
59239;SDS011;45010;53.640;10.578;2022-08-01T05:52:10;3.35;;;1.42;;
59239;SDS011;45010;53.640;10.578;2022-08-01T05:55:10;3.17;;;1.30;;
59239;SDS011;45010;53.640;10.578;2022-08-01T05:58:11;2.75;;;1.40;;
59239;SDS011;45010;53.640;10.578;2022-08-01T06:01:11;1.63;;;1.10;;
59239;SDS011;45010;53.640;10.578;2022-08-01T06:04:11;3.10;;;1.20;;
59239;SDS011;45010;53.640;10.578;2022-08-01T06:07:12;1.45;;;1.13;;
59239;SDS011;45010;53.640;10.578;2022-08-01T06:10:12;2.10;;;1.23;;
59239;SDS011;45010;53.640;10.578;2022-08-01T06:13:12;3.85;;;1.00;;
59239;SDS011;45010;53.640;10.578;2022-08-01T06:16:13;2.50;;;1.00;;
59239;SDS011;45010;53.640;10.578;2022-08-01T06:19:13;1.73;;;0.80;;
59239;SDS011;45010;53.640;10.578;2022-08-01T06:22:14;2.83;;;0.90;;
59239;SDS011;45010;53.640;10.578;2022-08-01T06:25:14;1.35;;;0.80;;
59239;SDS011;45010;53.640;10.578;2022-08-01T06:28:14;1.10;;;0.80;;
59239;SDS011;45010;53.640;10.578;2022-08-01T06:31:15;0.80;;;0.70;;
59239;SDS011;45010;53.640;10.578;2022-08-01T06:34:15;2.70;;;0.90;;
59239;SDS011;45010;53.640;10.578;2022-08-01T06:37:15;2.28;;;1.25;;
59239;SDS011;45010;53.640;10.578;2022-08-01T06:40:16;2.40;;;0.70;;
59239;SDS011;45010;53.640;10.578;2022-08-01T06:43:16;2.58;;;0.85;;
59239;SDS011;45010;53.640;10.578;2022-08-01T06:46:18;2.33;;;0.75;;
59239;SDS011;45010;53.640;10.578;2022-08-01T06:49:18;2.33;;;1.10;;
59239;SDS011;45010;53.640;10.578;2022-08-01T06:52:19;1.50;;;0.60;;
59239;SDS011;45010;53.640;10.578;2022-08-01T06:55:19;0.88;;;0.63;;
59239;SDS011;45010;53.640;10.578;2022-08-01T06:58:19;2.67;;;0.88;;
59239;SDS011;45010;53.640;10.578;2022-08-01T07:01:20;0.90;;;0.60;;
59239;SDS011;45010;53.640;10.578;2022-08-01T07:04:20;2.75;;;0.70;;
59239;SDS011;45010;53.640;10.578;2022-08-01T07:07:20;1.20;;;0.70;;
59239;SDS011;45010;53.640;10.578;2022-08-01T07:10:21;1.98;;;0.68;;
59239;SDS011;45010;53.640;10.578;2022-08-01T07:13:21;1.52;;;0.70;;
59239;SDS011;45010;53.640;10.578;2022-08-01T07:16:24;0.60;;;0.60;;
59239;SDS011;45010;53.640;10.578;2022-08-01T07:19:25;3.63;;;0.60;;
59239;SDS011;45010;53.640;10.578;2022-08-01T07:22:25;1.45;;;0.50;;
59239;SDS011;45010;53.640;10.578;2022-08-01T07:25:25;1.48;;;0.90;;
59239;SDS011;45010;53.640;10.578;2022-08-01T07:28:26;1.20;;;0.50;;
59239;SDS011;45010;53.640;10.578;2022-08-01T07:31:27;2.20;;;0.65;;
59239;SDS011;45010;53.640;10.578;2022-08-01T07:34:27;1.67;;;0.80;;
59239;SDS011;45010;53.640;10.578;2022-08-01T07:37:27;1.55;;;0.70;;
59239;SDS011;45010;53.640;10.578;2022-08-01T07:40:28;2.42;;;0.75;;
59239;SDS011;45010;53.640;10.578;2022-08-01T07:43:28;3.13;;;0.68;;
59239;SDS011;45010;53.640;10.578;2022-08-01T07:46:29;2.50;;;0.70;;
59239;SDS011;45010;53.640;10.578;2022-08-01T07:49:30;1.88;;;0.70;;
59239;SDS011;45010;53.640;10.578;2022-08-01T07:52:31;1.52;;;0.93;;
59239;SDS011;45010;53.640;10.578;2022-08-01T07:55:31;2.63;;;0.88;;
59239;SDS011;45010;53.640;10.578;2022-08-01T07:58:32;3.55;;;1.10;;
59239;SDS011;45010;53.640;10.578;2022-08-01T08:01:33;3.60;;;0.82;;
59239;SDS011;45010;53.640;10.578;2022-08-01T08:04:33;2.97;;;0.90;;
59239;SDS011;45010;53.640;10.578;2022-08-01T08:07:34;2.45;;;0.88;;
59239;SDS011;45010;53.640;10.578;2022-08-01T08:10:34;2.88;;;0.85;;
59239;SDS011;45010;53.640;10.578;2022-08-01T08:13:34;5.97;;;1.05;;
59239;SDS011;45010;53.640;10.578;2022-08-01T08:16:35;2.08;;;0.90;;
59239;SDS011;45010;53.640;10.578;2022-08-01T08:19:35;2.38;;;0.82;;
59239;SDS011;45010;53.640;10.578;2022-08-01T08:22:38;5.55;;;1.00;;
59239;SDS011;45010;53.640;10.578;2022-08-01T08:25:39;5.03;;;1.17;;
59239;SDS011;45010;53.640;10.578;2022-08-01T08:28:39;2.92;;;1.05;;
59239;SDS011;45010;53.640;10.578;2022-08-01T08:31:39;1.20;;;0.90;;
59239;SDS011;45010;53.640;10.578;2022-08-01T08:34:40;2.72;;;1.20;;
59239;SDS011;45010;53.640;10.578;2022-08-01T08:37:40;2.35;;;0.80;;
59239;SDS011;45010;53.640;10.578;2022-08-01T08:40:41;3.30;;;1.00;;
59239;SDS011;45010;53.640;10.578;2022-08-01T08:43:41;2.67;;;1.10;;
59239;SDS011;45010;53.640;10.578;2022-08-01T08:46:49;2.45;;;0.77;;
59239;SDS011;45010;53.640;10.578;2022-08-01T08:49:55;2.10;;;0.98;;
59239;SDS011;45010;53.640;10.578;2022-08-01T08:52:56;3.65;;;1.15;;
59239;SDS011;45010;53.640;10.578;2022-08-01T08:56:00;2.15;;;0.70;;
59239;SDS011;45010;53.640;10.578;2022-08-01T08:59:02;3.03;;;0.73;;
59239;SDS011;45010;53.640;10.578;2022-08-01T09:02:03;4.22;;;0.70;;
59239;SDS011;45010;53.640;10.578;2022-08-01T09:05:04;1.25;;;0.80;;
59239;SDS011;45010;53.640;10.578;2022-08-01T09:08:08;2.15;;;0.93;;
59239;SDS011;45010;53.640;10.578;2022-08-01T09:11:08;3.35;;;1.00;;
59239;SDS011;45010;53.640;10.578;2022-08-01T09:14:13;1.58;;;0.60;;
59239;SDS011;45010;53.640;10.578;2022-08-01T09:17:15;3.28;;;0.90;;
59239;SDS011;45010;53.640;10.578;2022-08-01T09:20:22;6.47;;;0.90;;
59239;SDS011;45010;53.640;10.578;2022-08-01T09:23:30;2.47;;;0.77;;
59239;SDS011;45010;53.640;10.578;2022-08-01T09:26:32;6.55;;;1.15;;
59239;SDS011;45010;53.640;10.578;2022-08-01T09:29:34;6.35;;;1.00;;
59239;SDS011;45010;53.640;10.578;2022-08-01T09:32:34;5.50;;;0.80;;
59239;SDS011;45010;53.640;10.578;2022-08-01T09:35:35;5.68;;;0.80;;
59239;SDS011;45010;53.640;10.578;2022-08-01T09:38:37;3.90;;;1.08;;
59239;SDS011;45010;53.640;10.578;2022-08-01T09:41:37;3.47;;;0.93;;
59239;SDS011;45010;53.640;10.578;2022-08-01T09:44:38;2.65;;;0.93;;
59239;SDS011;45010;53.640;10.578;2022-08-01T09:47:40;2.17;;;0.90;;
59239;SDS011;45010;53.640;10.578;2022-08-01T09:50:44;1.52;;;0.88;;
59239;SDS011;45010;53.640;10.578;2022-08-01T09:53:47;3.10;;;0.98;;
59239;SDS011;45010;53.640;10.578;2022-08-01T09:56:48;8.27;;;1.00;;
59239;SDS011;45010;53.640;10.578;2022-08-01T09:59:50;2.58;;;0.90;;
59239;SDS011;45010;53.640;10.578;2022-08-01T10:02:51;3.85;;;1.08;;
59239;SDS011;45010;53.640;10.578;2022-08-01T10:05:52;2.28;;;1.00;;
59239;SDS011;45010;53.640;10.578;2022-08-01T10:08:57;3.67;;;1.25;;
59239;SDS011;45010;53.640;10.578;2022-08-01T10:11:58;3.75;;;1.20;;
59239;SDS011;45010;53.640;10.578;2022-08-01T10:14:59;2.25;;;1.15;;
59239;SDS011;45010;53.640;10.578;2022-08-01T10:18:00;1.75;;;1.02;;
59239;SDS011;45010;53.640;10.578;2022-08-01T10:21:03;5.57;;;1.38;;
59239;SDS011;45010;53.640;10.578;2022-08-01T10:24:04;3.65;;;1.20;;
59239;SDS011;45010;53.640;10.578;2022-08-01T10:27:07;3.35;;;1.00;;
59239;SDS011;45010;53.640;10.578;2022-08-01T10:30:09;2.25;;;1.00;;
59239;SDS011;45010;53.640;10.578;2022-08-01T10:33:10;1.90;;;1.00;;
59239;SDS011;45010;53.640;10.578;2022-08-01T10:36:10;4.85;;;0.95;;
59239;SDS011;45010;53.640;10.578;2022-08-01T10:39:11;3.17;;;1.10;;
59239;SDS011;45010;53.640;10.578;2022-08-01T10:42:12;4.32;;;1.25;;
59239;SDS011;45010;53.640;10.578;2022-08-01T10:45:13;3.40;;;1.02;;
59239;SDS011;45010;53.640;10.578;2022-08-01T10:48:26;3.47;;;1.20;;
59239;SDS011;45010;53.640;10.578;2022-08-01T10:51:33;3.75;;;1.10;;
59239;SDS011;45010;53.640;10.578;2022-08-01T10:54:38;2.80;;;1.10;;
59239;SDS011;45010;53.640;10.578;2022-08-01T10:57:43;4.60;;;1.00;;
59239;SDS011;45010;53.640;10.578;2022-08-01T11:00:47;2.78;;;1.15;;
59239;SDS011;45010;53.640;10.578;2022-08-01T11:07:07;2.67;;;1.25;;
59239;SDS011;45010;53.640;10.578;2022-08-01T11:10:16;2.67;;;1.00;;
59239;SDS011;45010;53.640;10.578;2022-08-01T11:20:57;3.25;;;1.00;;
59239;SDS011;45010;53.640;10.578;2022-08-01T11:23:59;1.85;;;0.95;;
59239;SDS011;45010;53.640;10.578;2022-08-01T11:33:16;4.53;;;1.20;;
59239;SDS011;45010;53.640;10.578;2022-08-01T11:36:18;4.75;;;1.30;;
59239;SDS011;45010;53.640;10.578;2022-08-01T11:39:22;4.38;;;1.10;;
59239;SDS011;45010;53.640;10.578;2022-08-01T11:42:23;4.40;;;1.10;;
59239;SDS011;45010;53.640;10.578;2022-08-01T11:45:23;3.38;;;1.63;;
59239;SDS011;45010;53.640;10.578;2022-08-01T11:49:22;2.65;;;1.10;;
59239;SDS011;45010;53.640;10.578;2022-08-01T11:52:27;6.15;;;1.40;;
59239;SDS011;45010;53.640;10.578;2022-08-01T11:55:29;4.97;;;1.10;;
59239;SDS011;45010;53.640;10.578;2022-08-01T11:58:30;4.03;;;0.98;;
59239;SDS011;45010;53.640;10.578;2022-08-01T12:01:30;2.88;;;1.02;;
59239;SDS011;45010;53.640;10.578;2022-08-01T12:05:16;4.05;;;1.15;;
59239;SDS011;45010;53.640;10.578;2022-08-01T12:07:54;2.83;;;0.90;;
59239;SDS011;45010;53.640;10.578;2022-08-01T12:10:56;3.92;;;1.17;;
59239;SDS011;45010;53.640;10.578;2022-08-01T12:13:56;5.38;;;1.00;;
59239;SDS011;45010;53.640;10.578;2022-08-01T12:16:57;2.15;;;1.13;;
59239;SDS011;45010;53.640;10.578;2022-08-01T12:19:57;1.50;;;0.80;;
59239;SDS011;45010;53.640;10.578;2022-08-01T12:22:59;3.90;;;1.52;;
59239;SDS011;45010;53.640;10.578;2022-08-01T12:26:00;1.63;;;0.80;;
59239;SDS011;45010;53.640;10.578;2022-08-01T12:29:01;3.80;;;1.08;;
59239;SDS011;45010;53.640;10.578;2022-08-01T12:32:02;1.33;;;0.77;;
59239;SDS011;45010;53.640;10.578;2022-08-01T12:38:15;3.28;;;1.00;;
59239;SDS011;45010;53.640;10.578;2022-08-01T12:41:17;1.23;;;0.70;;
59239;SDS011;45010;53.640;10.578;2022-08-01T12:44:18;2.33;;;0.80;;
59239;SDS011;45010;53.640;10.578;2022-08-01T12:47:18;2.63;;;0.95;;
59239;SDS011;45010;53.640;10.578;2022-08-01T12:50:21;4.63;;;1.05;;
59239;SDS011;45010;53.640;10.578;2022-08-01T12:53:23;1.63;;;0.50;;
59239;SDS011;45010;53.640;10.578;2022-08-01T12:56:33;3.53;;;0.68;;
59239;SDS011;45010;53.640;10.578;2022-08-01T12:59:34;3.20;;;1.00;;
59239;SDS011;45010;53.640;10.578;2022-08-01T13:02:34;2.42;;;0.82;;
59239;SDS011;45010;53.640;10.578;2022-08-01T13:08:42;1.90;;;0.80;;
59239;SDS011;45010;53.640;10.578;2022-08-01T13:11:43;2.25;;;0.73;;
59239;SDS011;45010;53.640;10.578;2022-08-01T13:14:44;2.17;;;0.80;;
59239;SDS011;45010;53.640;10.578;2022-08-01T13:17:44;3.08;;;1.05;;
59239;SDS011;45010;53.640;10.578;2022-08-01T13:20:44;3.85;;;0.90;;
59239;SDS011;45010;53.640;10.578;2022-08-01T13:24:01;2.78;;;1.00;;
59239;SDS011;45010;53.640;10.578;2022-08-01T13:27:03;2.80;;;1.30;;
59239;SDS011;45010;53.640;10.578;2022-08-01T13:30:37;5.15;;;1.20;;
59239;SDS011;45010;53.640;10.578;2022-08-01T13:33:41;4.07;;;1.20;;
59239;SDS011;45010;53.640;10.578;2022-08-01T13:36:46;2.88;;;0.70;;
59239;SDS011;45010;53.640;10.578;2022-08-01T13:39:46;3.70;;;0.98;;
59239;SDS011;45010;53.640;10.578;2022-08-01T13:42:47;2.92;;;1.15;;
59239;SDS011;45010;53.640;10.578;2022-08-01T13:45:48;3.83;;;0.98;;
59239;SDS011;45010;53.640;10.578;2022-08-01T13:48:48;4.03;;;0.90;;
59239;SDS011;45010;53.640;10.578;2022-08-01T13:51:48;6.50;;;1.15;;
59239;SDS011;45010;53.640;10.578;2022-08-01T13:54:50;4.32;;;1.02;;
59239;SDS011;45010;53.640;10.578;2022-08-01T13:57:50;3.65;;;1.10;;
59239;SDS011;45010;53.640;10.578;2022-08-01T14:00:51;5.50;;;1.20;;
59239;SDS011;45010;53.640;10.578;2022-08-01T14:03:51;3.45;;;1.10;;
59239;SDS011;45010;53.640;10.578;2022-08-01T14:06:51;3.67;;;1.00;;
59239;SDS011;45010;53.640;10.578;2022-08-01T14:09:52;4.75;;;1.10;;
59239;SDS011;45010;53.640;10.578;2022-08-01T14:12:52;5.70;;;1.52;;
59239;SDS011;45010;53.640;10.578;2022-08-01T14:15:52;4.60;;;1.15;;
59239;SDS011;45010;53.640;10.578;2022-08-01T14:18:53;3.45;;;1.00;;
59239;SDS011;45010;53.640;10.578;2022-08-01T14:21:53;4.95;;;1.20;;
59239;SDS011;45010;53.640;10.578;2022-08-01T14:24:53;4.43;;;1.05;;
59239;SDS011;45010;53.640;10.578;2022-08-01T14:27:53;3.65;;;0.90;;
59239;SDS011;45010;53.640;10.578;2022-08-01T14:30:54;5.28;;;1.13;;
59239;SDS011;45010;53.640;10.578;2022-08-01T14:33:55;3.78;;;0.70;;
59239;SDS011;45010;53.640;10.578;2022-08-01T14:36:55;4.57;;;1.25;;
59239;SDS011;45010;53.640;10.578;2022-08-01T14:39:59;3.28;;;1.08;;
59239;SDS011;45010;53.640;10.578;2022-08-01T14:43:04;3.50;;;1.02;;
59239;SDS011;45010;53.640;10.578;2022-08-01T14:46:05;5.15;;;1.02;;
59239;SDS011;45010;53.640;10.578;2022-08-01T14:49:05;6.10;;;0.95;;
59239;SDS011;45010;53.640;10.578;2022-08-01T14:52:06;4.82;;;1.20;;
59239;SDS011;45010;53.640;10.578;2022-08-01T14:55:07;3.30;;;1.00;;
59239;SDS011;45010;53.640;10.578;2022-08-01T14:58:08;7.68;;;1.30;;
59239;SDS011;45010;53.640;10.578;2022-08-01T15:01:08;7.03;;;1.30;;
59239;SDS011;45010;53.640;10.578;2022-08-01T15:04:09;4.68;;;1.00;;
59239;SDS011;45010;53.640;10.578;2022-08-01T15:07:09;4.05;;;1.00;;
59239;SDS011;45010;53.640;10.578;2022-08-01T15:10:10;4.22;;;1.13;;
59239;SDS011;45010;53.640;10.578;2022-08-01T15:13:11;5.13;;;1.02;;
59239;SDS011;45010;53.640;10.578;2022-08-01T15:16:11;4.30;;;0.90;;
59239;SDS011;45010;53.640;10.578;2022-08-01T15:19:11;6.32;;;1.42;;
59239;SDS011;45010;53.640;10.578;2022-08-01T15:22:12;8.07;;;1.13;;
59239;SDS011;45010;53.640;10.578;2022-08-01T15:25:12;3.63;;;1.13;;
59239;SDS011;45010;53.640;10.578;2022-08-01T15:28:13;4.63;;;1.15;;
59239;SDS011;45010;53.640;10.578;2022-08-01T15:31:13;5.07;;;0.98;;
59239;SDS011;45010;53.640;10.578;2022-08-01T15:34:14;3.50;;;1.10;;
59239;SDS011;45010;53.640;10.578;2022-08-01T15:37:14;6.93;;;1.38;;
59239;SDS011;45010;53.640;10.578;2022-08-01T15:40:15;3.55;;;0.90;;
59239;SDS011;45010;53.640;10.578;2022-08-01T15:43:15;4.55;;;0.90;;
59239;SDS011;45010;53.640;10.578;2022-08-01T15:46:16;4.70;;;1.17;;
59239;SDS011;45010;53.640;10.578;2022-08-01T15:49:16;3.42;;;1.10;;
59239;SDS011;45010;53.640;10.578;2022-08-01T15:52:17;3.45;;;0.93;;
59239;SDS011;45010;53.640;10.578;2022-08-01T15:55:17;5.43;;;1.10;;
59239;SDS011;45010;53.640;10.578;2022-08-01T15:58:18;7.22;;;1.52;;
59239;SDS011;45010;53.640;10.578;2022-08-01T16:01:18;6.35;;;1.55;;
59239;SDS011;45010;53.640;10.578;2022-08-01T16:04:19;6.35;;;1.27;;
59239;SDS011;45010;53.640;10.578;2022-08-01T16:07:20;4.03;;;1.25;;
59239;SDS011;45010;53.640;10.578;2022-08-01T16:10:20;3.90;;;1.00;;
59239;SDS011;45010;53.640;10.578;2022-08-01T16:13:20;6.10;;;1.35;;
59239;SDS011;45010;53.640;10.578;2022-08-01T16:16:21;5.97;;;1.27;;
59239;SDS011;45010;53.640;10.578;2022-08-01T16:19:22;2.83;;;0.88;;
59239;SDS011;45010;53.640;10.578;2022-08-01T16:22:23;4.32;;;1.20;;
59239;SDS011;45010;53.640;10.578;2022-08-01T16:25:23;6.40;;;0.95;;
59239;SDS011;45010;53.640;10.578;2022-08-01T16:28:23;4.18;;;0.82;;
59239;SDS011;45010;53.640;10.578;2022-08-01T16:31:24;4.63;;;1.20;;
59239;SDS011;45010;53.640;10.578;2022-08-01T16:34:25;3.00;;;1.15;;
59239;SDS011;45010;53.640;10.578;2022-08-01T16:37:25;2.78;;;0.90;;
59239;SDS011;45010;53.640;10.578;2022-08-01T16:40:26;4.47;;;0.98;;
59239;SDS011;45010;53.640;10.578;2022-08-01T16:43:26;7.18;;;1.23;;
59239;SDS011;45010;53.640;10.578;2022-08-01T16:46:27;3.25;;;1.05;;
59239;SDS011;45010;53.640;10.578;2022-08-01T16:49:28;6.90;;;1.52;;
59239;SDS011;45010;53.640;10.578;2022-08-01T16:52:28;3.63;;;1.10;;
59239;SDS011;45010;53.640;10.578;2022-08-01T16:55:28;3.25;;;0.82;;
59239;SDS011;45010;53.640;10.578;2022-08-01T16:58:29;4.88;;;1.67;;
59239;SDS011;45010;53.640;10.578;2022-08-01T17:01:29;4.20;;;1.10;;
59239;SDS011;45010;53.640;10.578;2022-08-01T17:04:30;3.63;;;1.38;;
59239;SDS011;45010;53.640;10.578;2022-08-01T17:07:30;4.93;;;1.10;;
59239;SDS011;45010;53.640;10.578;2022-08-01T17:10:31;3.63;;;0.93;;
59239;SDS011;45010;53.640;10.578;2022-08-01T17:13:32;4.05;;;1.33;;
59239;SDS011;45010;53.640;10.578;2022-08-01T17:16:32;4.32;;;1.50;;
59239;SDS011;45010;53.640;10.578;2022-08-01T17:19:32;3.83;;;1.40;;
59239;SDS011;45010;53.640;10.578;2022-08-01T17:22:33;3.67;;;0.90;;
59239;SDS011;45010;53.640;10.578;2022-08-01T17:25:33;5.32;;;1.13;;
59239;SDS011;45010;53.640;10.578;2022-08-01T17:28:33;6.45;;;1.58;;
59239;SDS011;45010;53.640;10.578;2022-08-01T17:31:34;4.53;;;1.27;;
59239;SDS011;45010;53.640;10.578;2022-08-01T17:34:34;5.65;;;1.17;;
59239;SDS011;45010;53.640;10.578;2022-08-01T17:37:34;5.40;;;1.20;;
59239;SDS011;45010;53.640;10.578;2022-08-01T17:40:35;5.00;;;1.10;;
59239;SDS011;45010;53.640;10.578;2022-08-01T17:43:35;7.63;;;1.50;;
59239;SDS011;45010;53.640;10.578;2022-08-01T17:46:35;6.00;;;1.63;;
59239;SDS011;45010;53.640;10.578;2022-08-01T17:49:36;6.25;;;1.30;;
59239;SDS011;45010;53.640;10.578;2022-08-01T17:52:37;6.88;;;1.40;;
59239;SDS011;45010;53.640;10.578;2022-08-01T17:55:37;7.55;;;1.80;;
59239;SDS011;45010;53.640;10.578;2022-08-01T17:58:40;7.25;;;1.48;;
59239;SDS011;45010;53.640;10.578;2022-08-01T18:01:40;6.78;;;1.40;;
59239;SDS011;45010;53.640;10.578;2022-08-01T18:04:41;6.53;;;1.77;;
59239;SDS011;45010;53.640;10.578;2022-08-01T18:07:41;4.32;;;1.35;;
59239;SDS011;45010;53.640;10.578;2022-08-01T18:10:41;6.60;;;1.83;;
59239;SDS011;45010;53.640;10.578;2022-08-01T18:13:42;4.85;;;1.67;;
59239;SDS011;45010;53.640;10.578;2022-08-01T18:16:43;5.30;;;1.65;;
59239;SDS011;45010;53.640;10.578;2022-08-01T18:19:43;4.93;;;1.65;;
59239;SDS011;45010;53.640;10.578;2022-08-01T18:22:44;5.85;;;1.40;;
59239;SDS011;45010;53.640;10.578;2022-08-01T18:25:44;4.85;;;1.73;;
59239;SDS011;45010;53.640;10.578;2022-08-01T18:28:44;4.75;;;1.40;;
59239;SDS011;45010;53.640;10.578;2022-08-01T18:31:45;5.30;;;1.40;;
59239;SDS011;45010;53.640;10.578;2022-08-01T18:34:45;4.55;;;1.30;;